Time;durP1;ratioP1;P1;durP2;ratioP2;P2;SDS_P1;SDS_P2;PMS_P1;PMS_P2;Temp;Humidity;BMP_temperature;BMP_pressure;BME280_temperature;BME280_humidity;BME280_pressure;Samples;Min_cycle;Max_cycle;Signal;HPM_P1;HPM_P2
2023/03/31 00:02:12;;;;;;;8.50;5.72;;;;;;;8.06;42.16;100568.13;4986992;28;20037;-74
2023/03/31 00:04:44;;;;;;;9.30;6.22;;;;;;;7.99;42.36;100527.09;5007591;28;20026;-74
2023/03/31 00:07:12;;;;;;;10.33;5.87;;;;;;;8.01;41.57;100526.25;5000658;28;20096;-74
2023/03/31 00:09:39;;;;;;;13.35;6.57;;;;;;;8.07;42.88;100517.59;5004354;28;20354;-73
2023/03/31 00:12:05;;;;;;;7.40;4.85;;;;;;;8.07;42.71;100499.28;5003583;28;20136;-77
2023/03/31 00:14:31;;;;;;;9.02;5.53;;;;;;;8.21;41.26;100528.22;5006520;28;20050;-75
2023/03/31 00:16:57;;;;;;;10.30;5.65;;;;;;;8.24;40.94;100523.00;5007259;28;20028;-74
2023/03/31 00:19:23;;;;;;;8.48;5.93;;;;;;;8.15;40.80;100509.84;5003644;28;20058;-75
2023/03/31 00:21:50;;;;;;;8.93;5.57;;;;;;;8.28;41.33;100516.97;5004153;28;20065;-75
2023/03/31 00:24:15;;;;;;;8.25;5.43;;;;;;;8.24;40.45;100509.94;5007109;28;20038;-75
2023/03/31 00:26:41;;;;;;;13.38;6.45;;;;;;;7.54;40.65;100369.84;5006316;28;20453;-76
2023/03/31 00:29:08;;;;;;;10.27;4.72;;;;;;;7.94;40.78;100432.97;5002171;28;20449;-74
2023/03/31 00:31:34;;;;;;;9.15;4.97;;;;;;;8.23;40.45;100488.16;5004455;28;20038;-74
2023/03/31 00:34:00;;;;;;;9.25;5.00;;;;;;;8.34;41.26;100484.78;5006487;28;20037;-74
2023/03/31 00:36:30;;;;;;;12.50;5.75;;;;;;;7.75;40.19;100377.03;5007099;28;20042;-74
2023/03/31 00:39:11;;;;;;;10.93;5.45;;;;;;;7.80;41.34;100388.41;5006240;28;20053;-77
2023/03/31 00:41:37;;;;;;;13.10;4.45;;;;;;;7.86;41.13;100371.03;4999695;28;20069;-75
2023/03/31 00:44:23;;;;;;;13.18;4.88;;;;;;;8.43;41.63;100480.56;5003433;28;20117;-74
2023/03/31 00:47:11;;;;;;;8.95;5.63;;;;;;;8.38;40.61;100478.72;5011401;28;20057;-74
2023/03/31 00:49:50;;;;;;;14.73;4.88;;;;;;;7.90;40.92;100409.41;4996970;28;20080;-74
2023/03/31 00:52:21;;;;;;;11.13;5.35;;;;;;;8.47;41.95;100480.56;5003889;28;20042;-75
2023/03/31 00:54:52;;;;;;;9.27;6.05;;;;;;;7.63;41.23;100348.16;5002160;28;20057;-73
2023/03/31 00:57:19;;;;;;;11.93;5.88;;;;;;;8.46;41.29;100471.88;5001811;28;20425;-73
2023/03/31 00:59:56;;;;;;;10.60;6.10;;;;;;;8.33;41.41;100452.53;5002134;28;20073;-74
2023/03/31 01:02:26;;;;;;;9.90;6.45;;;;;;;8.23;42.02;100456.78;5004729;28;20129;-75
2023/03/31 01:04:56;;;;;;;10.65;6.22;;;;;;;8.40;42.03;100467.44;5006972;28;20080;-74
2023/03/31 01:07:29;;;;;;;10.27;6.00;;;;;;;8.36;41.72;100442.13;5006769;28;20042;-75
2023/03/31 01:09:58;;;;;;;;;;;;;;;8.43;42.30;100457.03;5002349;28;20049;-74
2023/03/31 01:12:25;;;;;;;10.90;7.13;;;;;;;8.12;43.11;100462.75;5005957;28;19913;-76
2023/03/31 01:14:52;;;;;;;21.65;7.90;;;;;;;7.71;45.13;100353.47;5006177;28;20057;-76
2023/03/31 01:17:20;;;;;;;14.73;7.35;;;;;;;7.60;46.56;100342.91;5002791;28;20486;-73
2023/03/31 01:20:17;;;;;;;8.90;6.85;;;;;;;8.04;46.27;100441.78;5007452;28;20401;-75
2023/03/31 01:23:08;;;;;;;10.18;6.38;;;;;;;8.19;46.27;100428.88;5006528;28;20037;-75
2023/03/31 01:26:01;;;;;;;10.73;6.60;;;;;;;8.28;45.56;100429.81;5005680;28;20309;-74
2023/03/31 01:28:38;;;;;;;11.80;6.53;;;;;;;8.20;45.17;100435.84;5008479;28;20053;-78
2023/03/31 01:31:58;;;;;;;8.90;6.40;;;;;;;8.30;44.99;100439.44;5008278;28;21055;-75
2023/03/31 01:34:57;;;;;;;13.25;7.38;;;;;;;8.13;44.19;100427.94;5003734;28;20042;-73
2023/03/31 01:37:36;;;;;;;12.43;6.13;;;;;;;8.13;45.27;100439.28;5034028;28;20042;-74
2023/03/31 01:40:10;;;;;;;11.20;7.47;;;;;;;8.00;44.81;100438.25;5006174;28;20046;-74
2023/03/31 01:42:56;;;;;;;20.05;7.22;;;;;;;7.99;44.93;100422.56;5009371;28;20053;-75
2023/03/31 01:45:49;;;;;;;9.57;6.38;;;;;;;7.14;44.97;100311.03;5008435;28;20104;-74
2023/03/31 01:48:22;;;;;;;12.20;6.82;;;;;;;7.22;45.23;100329.44;5009309;28;20125;-74
2023/03/31 01:51:00;;;;;;;11.43;6.97;;;;;;;7.06;44.90;100318.78;5007088;28;20045;-74
2023/03/31 01:53:37;;;;;;;14.82;7.03;;;;;;;7.73;45.99;100394.44;5008593;28;20455;-75
2023/03/31 01:56:35;;;;;;;14.45;7.43;;;;;;;7.97;45.50;100412.09;5008092;28;20041;-75
2023/03/31 01:59:03;;;;;;;11.63;6.07;;;;;;;7.74;45.79;100422.28;5000888;28;20042;-74
2023/03/31 02:01:55;;;;;;;10.80;6.38;;;;;;;7.82;45.69;100407.59;5009519;28;20117;-74
2023/03/31 02:04:42;;;;;;;15.10;7.82;;;;;;;7.94;45.24;100393.78;5008868;28;20414;-74
2023/03/31 02:07:31;;;;;;;10.88;7.32;;;;;;;7.95;45.63;100394.66;5006504;28;20486;-76
2023/03/31 02:10:01;;;;;;;18.75;7.80;;;;;;;7.44;45.67;100326.19;5008123;28;20136;-77
2023/03/31 02:12:31;;;;;;;12.52;7.20;;;;;;;7.68;45.34;100390.91;5006552;28;20546;-79
2023/03/31 02:15:00;;;;;;;17.40;7.65;;;;;;;7.31;46.45;100317.38;5009040;28;20759;-76
2023/03/31 02:17:29;;;;;;;13.02;8.15;;;;;;;7.75;46.67;100387.50;5009275;28;20581;-80
2023/03/31 02:19:57;;;;;;;10.68;7.05;;;;;;;7.83;47.60;100393.66;5010310;28;20037;-76
2023/03/31 02:22:23;;;;;;;11.55;8.20;;;;;;;7.57;47.12;100361.16;5009674;28;20077;-76
2023/03/31 02:24:52;;;;;;;9.57;7.47;;;;;;;7.03;47.29;100242.22;5009615;28;20092;-76
2023/03/31 02:27:28;;;;;;;13.60;8.55;;;;;;;7.58;47.08;100357.69;5001743;28;20100;-79
2023/03/31 02:29:54;;;;;;;14.00;8.60;;;;;;;7.74;47.05;100390.94;5002713;28;20581;-75
2023/03/31 02:32:31;;;;;;;11.35;8.45;;;;;;;7.37;47.40;100333.09;5007179;28;20046;-73
2023/03/31 02:34:57;;;;;;;11.75;8.20;;;;;;;7.71;47.93;100375.25;5005659;28;20121;-75
2023/03/31 02:37:24;;;;;;;14.82;9.20;;;;;;;7.05;47.50;100237.91;5006748;28;20041;-74
2023/03/31 02:39:53;;;;;;;15.48;8.82;;;;;;;7.15;48.65;100261.50;5001907;28;20101;-74
2023/03/31 02:42:19;;;;;;;16.45;8.45;;;;;;;7.08;47.69;100258.81;5005006;28;20133;-75
2023/03/31 02:44:45;;;;;;;11.32;8.00;;;;;;;7.74;47.66;100390.94;5006594;28;20038;-74
2023/03/31 02:47:13;;;;;;;17.02;9.60;;;;;;;7.88;48.25;100385.00;5003531;28;20033;-75
2023/03/31 02:49:43;;;;;;;11.70;8.70;;;;;;;7.93;48.42;100383.31;5004299;28;20038;-76
2023/03/31 02:52:39;;;;;;;15.32;8.88;;;;;;;7.88;47.85;100383.25;5008672;28;20125;-74
2023/03/31 02:55:20;;;;;;;13.73;8.13;;;;;;;7.85;48.64;100379.75;5000723;28;20077;-75
2023/03/31 02:57:57;;;;;;;16.40;8.52;;;;;;;7.16;48.03;100246.72;5002362;28;20046;-75
2023/03/31 03:00:41;;;;;;;16.77;8.43;;;;;;;7.00;48.67;100250.00;5005112;28;20054;-75
2023/03/31 03:03:54;;;;;;;18.08;8.80;;;;;;;7.71;50.34;100384.81;5007503;28;20136;-75
2023/03/31 03:06:52;;;;;;;11.80;8.77;;;;;;;7.73;49.49;100390.94;4999311;28;20065;-75
2023/03/31 03:09:28;;;;;;;13.23;8.23;;;;;;;7.74;49.04;100400.53;5001786;28;20549;-74
2023/03/31 03:12:06;;;;;;;21.33;8.82;;;;;;;7.60;48.07;100398.63;5006571;28;20073;-71
2023/03/31 03:14:40;;;;;;;17.40;8.05;;;;;;;7.70;48.16;100398.72;5008146;28;20050;-75
2023/03/31 03:17:25;;;;;;;14.65;8.07;;;;;;;7.66;48.29;100410.88;5007476;28;20022;-77
2023/03/31 03:19:57;;;;;;;15.40;8.60;;;;;;;7.27;47.41;100309.47;5006048;28;20034;-75
2023/03/31 03:22:23;;;;;;;17.73;8.60;;;;;;;7.77;47.41;100395.31;5003584;28;20042;-76
2023/03/31 03:24:50;;;;;;;16.70;7.38;;;;;;;6.88;47.92;100259.47;5002513;28;20099;-74
2023/03/31 03:27:16;;;;;;;13.95;7.78;;;;;;;6.83;47.59;100261.09;5007778;28;20577;-76
2023/03/31 03:29:42;;;;;;;21.35;9.75;;;;;;;7.58;47.79;100368.13;5005024;28;20050;-74
2023/03/31 03:32:08;;;;;;;12.48;7.97;;;;;;;7.73;47.96;100377.88;5006567;28;20026;-75
2023/03/31 03:34:33;;;;;;;20.35;8.02;;;;;;;7.47;47.73;100346.22;5002789;28;20030;-77
2023/03/31 03:36:59;;;;;;;13.85;7.43;;;;;;;7.47;47.76;100344.53;5003259;28;20108;-75
2023/03/31 03:39:24;;;;;;;15.68;7.03;;;;;;;7.80;46.76;100382.31;5006880;28;20525;-76
2023/03/31 03:41:50;;;;;;;13.07;7.90;;;;;;;7.69;46.98;100345.63;5006711;28;20595;-76
2023/03/31 03:44:15;;;;;;;14.57;7.35;;;;;;;7.62;47.17;100341.19;5007203;28;20029;-77
2023/03/31 03:46:41;;;;;;;36.80;9.77;;;;;;;7.86;46.89;100360.59;5007693;28;20040;-75
2023/03/31 03:49:08;;;;;;;13.05;7.43;;;;;;;7.09;46.04;100222.28;5007447;28;20042;-76
2023/03/31 03:51:33;;;;;;;13.95;9.13;;;;;;;7.20;46.50;100227.63;5007106;28;20593;-73
2023/03/31 03:53:59;;;;;;;13.48;7.13;;;;;;;7.80;46.66;100357.06;5002983;28;20050;-74
2023/03/31 03:56:25;;;;;;;16.65;8.07;;;;;;;7.31;47.69;100270.38;5005974;28;20046;-75
2023/03/31 03:58:50;;;;;;;12.23;6.80;;;;;;;7.61;47.17;100336.84;5006702;28;20121;-75
2023/03/31 04:01:17;;;;;;;18.80;8.90;;;;;;;7.93;47.83;100355.44;5005302;28;20137;-76
2023/03/31 04:03:42;;;;;;;15.35;8.38;;;;;;;7.79;48.58;100329.19;5006980;28;20057;-74
2023/03/31 04:06:08;;;;;;;15.55;8.82;;;;;;;7.87;48.12;100354.53;5005229;28;20065;-76
2023/03/31 04:08:33;;;;;;;10.27;7.30;;;;;;;7.38;49.18;100277.41;5005685;28;20038;-75
2023/03/31 04:10:59;;;;;;;16.05;8.27;;;;;;;7.86;49.13;100345.78;5006179;28;20049;-76
2023/03/31 04:13:24;;;;;;;11.85;7.38;;;;;;;7.70;49.47;100334.34;5004581;28;20041;-74
2023/03/31 04:15:51;;;;;;;21.45;7.80;;;;;;;7.80;49.33;100340.53;5002952;28;20083;-76
2023/03/31 04:18:23;;;;;;;20.75;7.25;;;;;;;7.32;49.71;100247.75;5005412;28;20053;-77
2023/03/31 04:21:05;;;;;;;13.35;7.85;;;;;;;7.38;50.08;100255.66;5001956;28;20107;-73
2023/03/31 04:23:41;;;;;;;16.73;7.57;;;;;;;7.88;52.15;100345.81;5004430;28;20144;-76
2023/03/31 04:26:08;;;;;;;15.90;7.20;;;;;;;7.05;52.49;100241.38;5004627;28;20672;-78
2023/03/31 04:28:35;;;;;;;11.93;7.30;;;;;;;7.86;51.28;100352.75;5004359;28;20049;-73
2023/03/31 04:31:08;;;;;;;20.80;7.38;;;;;;;7.78;51.60;100355.31;5005356;28;20072;-74
2023/03/31 04:33:37;;;;;;;17.20;7.88;;;;;;;7.74;51.24;100335.22;5005548;28;20132;-74
2023/03/31 04:36:18;;;;;;;19.35;8.50;;;;;;;7.51;52.34;100293.19;5006225;28;20042;-77
2023/03/31 04:38:53;;;;;;;15.93;7.60;;;;;;;7.79;52.48;100315.25;4998844;28;20459;-75
2023/03/31 04:41:19;;;;;;;25.08;8.43;;;;;;;7.87;52.61;100349.31;5005642;28;20034;-74
2023/03/31 04:43:45;;;;;;;16.27;7.28;;;;;;;7.07;52.87;100216.19;4993264;28;20105;-76
2023/03/31 04:46:10;;;;;;;16.30;8.98;;;;;;;8.00;53.31;100348.53;5006155;28;20070;-74
2023/03/31 04:48:36;;;;;;;12.05;7.85;;;;;;;7.98;53.36;100364.22;5005330;28;20176;-77
2023/03/31 04:51:02;;;;;;;13.80;6.57;;;;;;;7.95;55.36;100339.78;5005402;28;20068;-78
2023/03/31 04:53:27;;;;;;;18.55;7.75;;;;;;;7.69;55.84;100282.06;5000971;28;20100;-78
2023/03/31 04:55:53;;;;;;;12.23;7.18;;;;;;;7.32;56.94;100219.91;5002214;28;20034;-75
2023/03/31 04:58:18;;;;;;;16.42;8.77;;;;;;;7.65;58.04;100278.53;5004631;28;20046;-74
2023/03/31 05:00:44;;;;;;;13.13;8.80;;;;;;;8.06;58.68;100343.38;5004031;28;20115;-73
2023/03/31 05:03:09;;;;;;;26.08;9.23;;;;;;;7.66;59.01;100251.59;5005656;28;20545;-73
2023/03/31 05:05:36;;;;;;;17.63;7.25;;;;;;;7.29;58.39;100203.38;5005860;28;20056;-75
2023/03/31 05:08:04;;;;;;;17.15;8.55;;;;;;;8.07;59.73;100326.81;5005598;28;20112;-75
2023/03/31 05:10:30;;;;;;;22.83;8.60;;;;;;;8.06;58.76;100312.03;5009623;28;20021;-74
2023/03/31 05:12:56;;;;;;;17.52;8.10;;;;;;;7.70;58.86;100240.31;5006014;28;20129;-74
2023/03/31 05:15:23;;;;;;;21.55;8.48;;;;;;;7.54;57.74;100243.66;5005696;28;20070;-74
2023/03/31 05:17:49;;;;;;;14.63;10.30;;;;;;;7.78;60.20;100327.44;5006324;28;20060;-74
2023/03/31 05:20:15;;;;;;;12.60;7.55;;;;;;;7.85;59.82;100283.09;5003754;28;20038;-74
2023/03/31 05:22:40;;;;;;;17.85;8.15;;;;;;;7.50;62.51;100190.50;5003262;28;20048;-73
2023/03/31 05:25:08;;;;;;;12.35;8.35;;;;;;;7.65;62.31;100210.66;5000172;28;20041;-74
2023/03/31 05:27:34;;;;;;;23.70;9.15;;;;;;;7.54;68.10;100202.75;4998593;28;20414;-74
2023/03/31 05:30:01;;;;;;;14.18;8.10;;;;;;;8.29;68.43;100300.84;5001159;28;20083;-74
2023/03/31 05:32:27;;;;;;;12.80;8.15;;;;;;;8.20;69.35;100281.66;5001165;28;20131;-77
2023/03/31 05:34:56;;;;;;;10.77;7.70;;;;;;;8.13;73.85;100303.38;5000312;28;20468;-78
2023/03/31 05:37:25;;;;;;;11.95;6.35;;;;;;;7.92;76.07;100277.06;5000931;28;20058;-76
2023/03/31 05:39:51;;;;;;;17.65;10.10;;;;;;;7.46;89.84;100193.94;5000899;28;20050;-73
2023/03/31 05:42:18;;;;;;;18.77;9.82;;;;;;;7.42;99.22;100201.75;5005513;28;20092;-77
2023/03/31 05:44:44;;;;;;;16.08;10.18;;;;;;;7.85;100.00;100301.38;5005174;28;20071;-76
2023/03/31 05:47:10;;;;;;;15.05;7.93;;;;;;;6.61;100.00;100183.50;4987998;28;20034;-76
2023/03/31 05:49:37;;;;;;;20.10;9.23;;;;;;;7.44;100.00;100273.97;4999959;28;20053;-75
2023/03/31 05:52:03;;;;;;;12.98;9.68;;;;;;;7.12;100.00;100222.34;5002949;28;20046;-74
2023/03/31 05:54:29;;;;;;;11.80;8.48;;;;;;;7.21;100.00;100286.81;5009607;28;20064;-75
2023/03/31 05:56:54;;;;;;;13.23;9.30;;;;;;;7.27;100.00;100280.78;5018564;28;20474;-74
2023/03/31 05:59:20;;;;;;;16.77;9.85;;;;;;;6.86;100.00;100279.41;5009133;28;20049;-73
2023/03/31 06:01:46;;;;;;;15.57;10.32;;;;;;;6.92;100.00;100236.88;5008793;28;20044;-76
2023/03/31 06:04:11;;;;;;;14.40;10.57;;;;;;;7.36;100.00;100267.81;5009567;28;20034;-75
2023/03/31 06:06:37;;;;;;;17.30;10.10;;;;;;;6.44;100.00;100155.50;5011453;28;20414;-76
2023/03/31 06:09:04;;;;;;;14.77;9.25;;;;;;;7.19;100.00;100268.50;5014603;28;20041;-76
2023/03/31 06:11:29;;;;;;;12.25;9.27;;;;;;;6.85;100.00;100241.13;5010474;28;20042;-75
2023/03/31 06:13:55;;;;;;;15.50;9.70;;;;;;;6.87;100.00;100215.97;5009682;28;20141;-76
2023/03/31 06:16:20;;;;;;;22.83;11.15;;;;;;;6.59;100.00;100131.31;5008327;28;20096;-76
2023/03/31 06:18:46;;;;;;;18.95;10.68;;;;;;;7.15;100.00;100216.28;5007055;28;20045;-74
2023/03/31 06:21:16;;;;;;;17.65;11.00;;;;;;;6.40;100.00;100113.72;5005747;28;20061;-74
2023/03/31 06:23:45;;;;;;;18.35;12.00;;;;;;;6.31;100.00;100094.50;5000912;28;20038;-74
2023/03/31 06:26:13;;;;;;;18.30;11.63;;;;;;;6.32;100.00;100061.50;5003966;28;20030;-74
2023/03/31 06:28:39;;;;;;;15.88;12.02;;;;;;;6.59;100.00;100086.16;5000764;28;20121;-73
2023/03/31 06:31:11;;;;;;;18.15;12.35;;;;;;;6.86;100.00;100103.78;5005875;28;20102;-74
2023/03/31 06:33:37;;;;;;;12.07;7.15;;;;;;;7.24;100.00;100171.16;5006514;28;20471;-75
2023/03/31 06:36:05;;;;;;;19.40;11.77;;;;;;;6.85;100.00;100118.56;5008411;28;20046;-76
2023/03/31 06:38:35;;;;;;;21.48;13.10;;;;;;;7.35;100.00;100162.56;4999237;28;20046;-73
2023/03/31 06:41:01;;;;;;;22.27;12.90;;;;;;;7.29;100.00;100157.25;5005027;28;20052;-75
2023/03/31 06:43:27;;;;;;;15.93;12.32;;;;;;;6.41;100.00;100025.13;5003387;28;20553;-76
2023/03/31 06:45:53;;;;;;;18.00;12.38;;;;;;;7.12;100.00;100109.28;5006574;28;20125;-73
2023/03/31 06:48:19;;;;;;;20.58;13.48;;;;;;;7.22;100.00;100086.75;5000525;28;20538;-74
2023/03/31 06:50:45;;;;;;;17.73;11.10;;;;;;;7.42;100.00;100124.28;5005479;28;20122;-75
2023/03/31 06:53:10;;;;;;;18.10;13.20;;;;;;;7.46;100.00;100126.06;5007474;28;20025;-74
2023/03/31 06:55:37;;;;;;;14.48;11.10;;;;;;;7.45;100.00;100128.69;5004523;28;20038;-70
2023/03/31 06:58:03;;;;;;;19.02;12.68;;;;;;;6.88;100.00;100008.19;5004089;28;20046;-72
2023/03/31 07:00:29;;;;;;;18.92;12.45;;;;;;;6.69;100.00;100021.06;5005002;28;20133;-71
2023/03/31 07:02:55;;;;;;;16.77;12.90;;;;;;;7.16;100.00;100101.50;4997596;28;20530;-71
2023/03/31 07:05:26;;;;;;;18.67;11.48;;;;;;;6.43;100.00;99999.97;5005591;28;20050;-72
2023/03/31 07:07:56;;;;;;;17.33;11.93;;;;;;;6.30;100.00;99956.41;5008171;28;20895;-70
2023/03/31 07:10:23;;;;;;;17.60;13.50;;;;;;;6.40;100.00;100010.34;5005792;28;20138;-71
2023/03/31 07:12:49;;;;;;;18.40;10.90;;;;;;;6.46;100.00;99981.78;5003849;28;20058;-71
2023/03/31 07:15:15;;;;;;;18.90;13.50;;;;;;;6.87;100.00;100051.66;5007487;28;20544;-71
2023/03/31 07:17:41;;;;;;;16.35;13.15;;;;;;;7.03;100.00;100051.81;5004837;28;20057;-71
2023/03/31 07:20:11;;;;;;;26.70;14.73;;;;;;;7.13;100.00;100046.66;5002632;28;20553;-69
2023/03/31 07:22:37;;;;;;;20.42;11.68;;;;;;;6.50;100.00;99938.34;4999747;28;20137;-70
2023/03/31 07:25:03;;;;;;;16.60;12.38;;;;;;;7.10;100.00;100040.56;5000410;28;20046;-73
2023/03/31 07:27:28;;;;;;;24.65;12.68;;;;;;;6.30;100.00;99883.47;5007694;28;20127;-74
2023/03/31 07:29:54;;;;;;;19.20;12.95;;;;;;;6.92;100.00;100029.09;5007282;28;20145;-74
2023/03/31 07:32:21;;;;;;;16.23;12.75;;;;;;;6.84;100.00;100022.09;5002873;28;20057;-71
2023/03/31 07:34:46;;;;;;;19.95;12.77;;;;;;;6.96;100.00;100016.97;5004071;28;20029;-72
2023/03/31 07:37:11;;;;;;;17.25;12.57;;;;;;;6.20;100.00;99866.84;5006228;28;20108;-72
2023/03/31 07:39:37;;;;;;;15.75;12.80;;;;;;;6.43;100.00;99894.84;5006597;28;20093;-72
2023/03/31 07:42:02;;;;;;;15.75;12.35;;;;;;;6.79;100.00;99972.50;5004360;28;20069;-72
2023/03/31 07:44:28;;;;;;;22.55;13.05;;;;;;;6.80;100.00;100007.25;5003750;28;20053;-72
2023/03/31 07:46:53;;;;;;;23.83;17.20;;;;;;;6.73;100.00;99978.53;5006237;28;20037;-73
2023/03/31 07:49:19;;;;;;;21.02;12.70;;;;;;;6.31;100.00;99862.63;4999914;28;20056;-71
2023/03/31 07:51:44;;;;;;;17.70;10.85;;;;;;;7.06;100.00;99970.94;4995179;28;20058;-73
2023/03/31 07:54:10;;;;;;;16.50;13.57;;;;;;;6.90;100.00;99941.28;5006777;28;20045;-71
2023/03/31 07:56:35;;;;;;;21.05;12.60;;;;;;;6.42;100.00;99841.88;5002921;28;20210;-72
2023/03/31 07:59:01;;;;;;;18.60;12.52;;;;;;;7.25;100.00;99974.56;5004396;28;20034;-74
2023/03/31 08:01:28;;;;;;;16.13;11.82;;;;;;;6.61;100.00;99836.78;4999003;28;20025;-74
2023/03/31 08:03:54;;;;;;;19.65;12.25;;;;;;;7.24;100.00;99960.66;4998901;28;20073;-73
2023/03/31 08:06:24;;;;;;;17.80;14.82;;;;;;;7.02;100.00;99906.56;5006243;28;20082;-73
2023/03/31 08:08:50;;;;;;;21.27;12.57;;;;;;;7.16;100.00;99925.78;5006759;28;20059;-73
2023/03/31 08:11:16;;;;;;;24.58;14.18;;;;;;;6.71;100.00;99833.38;5011492;28;20405;-75
2023/03/31 08:13:42;;;;;;;17.52;11.07;;;;;;;6.73;100.00;99839.47;5002805;28;20033;-73
2023/03/31 08:16:07;;;;;;;14.80;11.90;;;;;;;6.79;100.00;99826.47;4997791;28;20041;-73
2023/03/31 08:18:33;;;;;;;17.52;13.25;;;;;;;6.74;100.00;99786.44;5006422;28;20065;-73
2023/03/31 08:20:58;;;;;;;18.17;14.10;;;;;;;6.89;100.00;99804.78;5005137;28;20493;-70
2023/03/31 08:23:24;;;;;;;19.15;14.07;;;;;;;6.92;100.00;99791.75;5001192;28;20042;-70
2023/03/31 08:25:49;;;;;;;16.80;13.60;;;;;;;7.90;100.00;99923.50;5000487;28;20037;-70
2023/03/31 08:28:16;;;;;;;19.90;14.82;;;;;;;8.02;100.00;99919.19;4993651;28;20364;-71
2023/03/31 08:30:42;;;;;;;14.65;13.02;;;;;;;8.03;100.00;99918.34;5002018;28;20048;-69
2023/03/31 08:33:07;;;;;;;20.63;13.02;;;;;;;8.25;100.00;99906.16;4998234;28;20046;-68
2023/03/31 08:35:36;;;;;;;19.92;14.10;;;;;;;8.38;100.00;99917.53;5002936;28;20104;-70
2023/03/31 08:38:01;;;;;;;20.15;13.60;;;;;;;7.59;100.00;99792.88;5003653;28;20432;-71
2023/03/31 08:40:29;;;;;;;19.08;13.90;;;;;;;7.99;100.00;99931.38;5004471;28;20088;-71
2023/03/31 08:43:05;;;;;;;17.90;12.80;;;;;;;8.50;100.00;99916.69;5006185;28;20088;-71
2023/03/31 08:45:38;;;;;;;17.92;13.48;;;;;;;8.32;100.00;99848.69;5005892;28;20129;-71
2023/03/31 08:48:24;;;;;;;21.33;14.13;;;;;;;8.80;100.00;99914.91;5005888;28;20048;-70
2023/03/31 08:51:02;;;;;;;26.48;14.23;;;;;;;9.03;100.00;99902.66;4999580;28;20061;-70
2023/03/31 08:53:33;;;;;;;15.73;12.25;;;;;;;9.07;100.00;99904.41;5005065;28;20045;-70
2023/03/31 08:56:00;;;;;;;17.15;14.05;;;;;;;8.69;100.00;99775.47;5005926;28;20053;-71
2023/03/31 08:58:44;;;;;;;20.80;15.18;;;;;;;9.49;100.00;99913.03;5003396;28;20058;-69
2023/03/31 09:01:42;;;;;;;17.83;12.93;;;;;;;9.34;100.00;99930.53;5005227;28;20046;-70
2023/03/31 09:04:46;;;;;;;17.98;11.63;;;;;;;9.32;100.00;99913.94;4985007;28;20108;-70
2023/03/31 09:07:18;;;;;;;16.90;11.65;;;;;;;9.55;100.00;99916.47;4997200;28;20498;-69
2023/03/31 09:10:23;;;;;;;20.35;11.38;;;;;;;9.67;100.00;99927.81;5005457;28;20057;-70
2023/03/31 09:12:57;;;;;;;;;;;;;;;10.05;100.00;99921.50;4999065;28;20058;-72
2023/03/31 09:15:28;;;;;;;15.95;10.90;;;;;;;9.28;100.00;99787.44;4997330;28;20486;-74
2023/03/31 09:17:58;;;;;;;18.42;11.68;;;;;;;10.23;100.00;99909.13;4998849;28;20536;-74
2023/03/31 09:20:36;;;;;;;15.82;11.23;;;;;;;10.03;100.00;99852.47;5005262;28;20498;-76
2023/03/31 09:23:04;;;;;;;17.35;11.02;;;;;;;10.56;100.00;99910.69;4990585;28;20037;-70
2023/03/31 09:25:40;;;;;;;15.15;10.93;;;;;;;10.46;100.00;99888.03;4997536;28;20041;-79
2023/03/31 09:28:17;;;;;;;23.25;12.40;;;;;;;10.76;100.00;99898.25;5003349;28;20634;-71
2023/03/31 09:30:43;;;;;;;16.90;11.40;;;;;;;10.96;100.00;99884.94;4987266;28;20065;-70
2023/03/31 09:33:30;;;;;;;17.33;11.27;;;;;;;11.32;100.00;99909.06;5000854;28;20506;-71
2023/03/31 09:35:57;;;;;;;13.68;10.07;;;;;;;11.43;100.00;99894.97;5002564;28;20137;-69
2023/03/31 09:38:23;;;;;;;17.38;11.60;;;;;;;11.37;100.00;99924.78;5005659;28;20069;-72
2023/03/31 09:40:49;;;;;;;16.23;10.57;;;;;;;11.67;100.00;99918.28;5009149;28;20145;-73
2023/03/31 09:43:23;;;;;;;13.60;10.32;;;;;;;11.83;100.00;99922.47;5010047;28;20042;-71
2023/03/31 09:45:50;;;;;;;14.32;11.02;;;;;;;11.73;100.00;99926.13;5008112;28;20042;-75
2023/03/31 09:48:20;;;;;;;18.38;11.10;;;;;;;10.97;100.00;99807.06;5010251;28;20046;-71
2023/03/31 09:50:55;;;;;;;17.33;10.32;;;;;;;11.40;100.00;99802.16;5009441;28;20042;-70
2023/03/31 09:53:31;;;;;;;17.52;11.02;;;;;;;12.10;100.00;99894.06;5009857;28;20565;-69
2023/03/31 09:56:01;;;;;;;20.35;11.55;;;;;;;12.25;100.00;99920.16;5008495;28;20123;-69
2023/03/31 09:58:27;;;;;;;14.27;11.80;;;;;;;12.54;100.00;99926.72;4988643;28;20193;-70
2023/03/31 10:01:05;;;;;;;22.17;11.23;;;;;;;12.77;100.00;99934.25;5004586;28;20045;-72
2023/03/31 10:03:35;;;;;;;16.20;11.93;;;;;;;12.84;100.00;99906.94;5009235;28;20457;-73
2023/03/31 10:06:07;;;;;;;15.18;10.95;;;;;;;12.04;100.00;99807.41;5009154;28;20038;-73
2023/03/31 10:08:58;;;;;;;12.98;10.80;;;;;;;12.69;100.00;99912.47;5009424;28;20042;-71
2023/03/31 10:11:26;;;;;;;13.48;9.80;;;;;;;12.14;100.00;99850.19;5006615;28;20124;-71
2023/03/31 10:14:12;;;;;;;15.75;11.70;;;;;;;12.83;100.00;99925.38;4997465;28;20069;-69
2023/03/31 10:16:51;;;;;;;23.55;13.85;;;;;;;12.63;100.00;99931.84;4988253;28;20053;-70
2023/03/31 10:19:22;;;;;;;22.95;12.75;;;;;;;12.29;100.00;99830.66;5002907;28;20046;-72
2023/03/31 10:21:56;;;;;;;15.57;12.45;;;;;;;13.14;100.00;99924.84;4989467;28;20506;-70
2023/03/31 10:24:21;;;;;;;17.42;12.88;;;;;;;12.50;100.00;99826.81;4997255;28;20079;-71
2023/03/31 10:26:49;;;;;;;19.67;12.63;;;;;;;13.02;100.00;99897.84;5011332;28;20045;-69
2023/03/31 10:29:37;;;;;;;16.60;12.32;;;;;;;12.75;100.00;99804.41;4999336;28;20038;-70
2023/03/31 10:32:08;;;;;;;19.80;12.48;;;;;;;13.16;100.00;99913.38;5006072;28;20484;-69
2023/03/31 10:34:38;;;;;;;18.90;11.23;;;;;;;12.58;100.00;99812.63;5003875;28;20482;-70
2023/03/31 10:37:05;;;;;;;17.17;14.20;;;;;;;12.67;100.00;99787.91;4999159;28;20038;-70
2023/03/31 10:39:34;;;;;;;17.65;12.50;;;;;;;13.46;100.00;99917.25;5008301;28;20457;-70
2023/03/31 10:42:00;;;;;;;16.58;11.80;;;;;;;12.68;100.00;99818.59;5008848;28;20398;-71
2023/03/31 10:44:36;;;;;;;14.05;11.65;;;;;;;13.55;100.00;99928.47;5008846;28;20088;-70
2023/03/31 10:47:16;;;;;;;19.08;14.13;;;;;;;13.29;100.00;99882.44;5008571;28;20405;-73
2023/03/31 10:49:43;;;;;;;16.00;13.30;;;;;;;13.44;100.00;99889.19;5008602;28;20034;-71
2023/03/31 10:52:22;;;;;;;15.25;12.63;;;;;;;13.55;100.00;99908.25;5008572;28;20069;-71
2023/03/31 10:55:11;;;;;;;19.95;12.90;;;;;;;13.54;100.00;99890.72;5008337;28;20065;-70
2023/03/31 10:58:00;;;;;;;22.73;12.70;;;;;;;12.80;100.00;99770.97;5004458;28;20107;-71
2023/03/31 11:00:36;;;;;;;25.02;14.82;;;;;;;13.86;100.00;99900.59;4991740;28;20153;-72
2023/03/31 11:03:12;;;;;;;16.30;12.70;;;;;;;13.28;100.00;99809.56;5007612;28;20049;-70
2023/03/31 11:06:12;;;;;;;20.98;13.27;;;;;;;13.81;100.00;99891.03;4992962;28;20133;-69
2023/03/31 11:09:03;;;;;;;16.33;12.98;;;;;;;13.84;100.00;99862.81;4995694;28;20046;-69
2023/03/31 11:11:53;;;;;;;18.20;12.55;;;;;;;14.10;100.00;99891.25;5007897;28;20414;-69
2023/03/31 11:14:22;;;;;;;24.58;14.13;;;;;;;14.13;100.00;99891.16;5004497;28;20069;-71
2023/03/31 11:16:58;;;;;;;18.25;13.43;;;;;;;14.03;100.00;99894.06;5002738;28;20029;-70
2023/03/31 11:19:47;;;;;;;24.63;14.35;;;;;;;14.16;100.00;99884.94;5006945;28;20414;-71
2023/03/31 11:22:25;;;;;;;25.67;15.48;;;;;;;14.29;100.00;99882.91;5008114;28;20041;-69
2023/03/31 11:25:17;;;;;;;19.92;14.00;;;;;;;14.36;100.00;99876.56;5007284;28;20054;-70
2023/03/31 11:28:13;;;;;;;26.45;15.88;;;;;;;14.50;100.00;99868.31;5002806;28;20046;-70
2023/03/31 11:31:05;;;;;;;22.98;14.55;;;;;;;14.73;100.00;99867.78;5005806;28;20077;-71
2023/03/31 11:33:52;;;;;;;21.60;12.57;;;;;;;14.88;100.00;99887.63;4999008;28;20129;-72
2023/03/31 11:36:41;;;;;;;21.77;13.35;;;;;;;14.75;100.00;99877.41;4988775;28;20046;-73
2023/03/31 11:39:18;;;;;;;19.08;12.77;;;;;;;14.97;100.00;99872.41;4987255;28;20060;-76
2023/03/31 11:41:50;;;;;;;18.00;13.88;;;;;;;15.34;100.00;99852.88;5007044;28;20038;-73